createdAt,value
2023-04-04T00:00:21.880Z,9.60
2023-04-04T00:02:49.952Z,5.78
2023-04-04T00:05:17.181Z,10.50
2023-04-04T00:07:47.374Z,12.52
2023-04-04T00:10:14.877Z,10.77
2023-04-04T00:12:43.126Z,24.75
2023-04-04T00:15:10.697Z,27.50
2023-04-04T00:17:37.833Z,18.88
2023-04-04T00:20:05.179Z,7.35
2023-04-04T00:22:32.287Z,9.63
2023-04-04T00:24:59.273Z,14.45
2023-04-04T00:27:26.389Z,14.73
2023-04-04T00:29:53.553Z,14.98
2023-04-04T00:32:20.794Z,14.20
2023-04-04T00:34:53.148Z,9.05
2023-04-04T00:37:20.231Z,21.30
2023-04-04T00:39:47.844Z,14.80
2023-04-04T00:42:14.822Z,15.00
2023-04-04T00:44:41.782Z,13.55
2023-04-04T00:47:08.722Z,10.82
2023-04-04T00:49:37.329Z,12.32
2023-04-04T00:52:07.340Z,10.15
2023-04-04T00:54:35.895Z,5.60
2023-04-04T00:57:04.868Z,7.90
2023-04-04T00:59:32.988Z,22.25
2023-04-04T01:02:00.818Z,8.32
2023-04-04T01:04:31.627Z,17.25
2023-04-04T01:06:59.218Z,18.98
2023-04-04T01:09:26.595Z,11.50
2023-04-04T01:11:55.757Z,8.82
2023-04-04T01:14:23.137Z,17.40
2023-04-04T01:16:51.602Z,4.20
2023-04-04T01:19:51.152Z,5.82
2023-04-04T01:22:19.098Z,13.77
2023-04-04T01:24:49.127Z,11.52
2023-04-04T01:27:16.366Z,3.33
2023-04-04T01:29:43.280Z,9.10
2023-04-04T01:32:20.068Z,24.13
2023-04-04T01:35:08.569Z,7.38
2023-04-04T01:37:58.802Z,8.77
2023-04-04T01:40:31.951Z,2.35
2023-04-04T01:42:58.924Z,10.13
2023-04-04T01:45:26.427Z,8.88
2023-04-04T01:47:53.374Z,7.18
2023-04-04T01:50:20.378Z,7.50
2023-04-04T01:52:47.764Z,8.00
2023-04-04T01:55:14.700Z,5.20
2023-04-04T01:57:41.764Z,3.78
2023-04-04T02:00:09.144Z,4.43
2023-04-04T02:02:36.077Z,5.82
2023-04-04T02:05:04.231Z,9.05
2023-04-04T02:07:31.197Z,10.93
2023-04-04T02:09:58.743Z,10.48
2023-04-04T02:12:25.669Z,5.72
2023-04-04T02:14:52.762Z,5.13
2023-04-04T02:17:19.668Z,12.35
2023-04-04T02:19:47.275Z,11.95
2023-04-04T02:22:14.094Z,8.23
2023-04-04T02:24:41.048Z,4.45
2023-04-04T02:27:07.994Z,4.90
2023-04-04T02:29:34.862Z,4.03
2023-04-04T02:32:01.737Z,6.50
2023-04-04T02:34:29.012Z,10.18
2023-04-04T02:36:55.927Z,15.40
2023-04-04T02:39:23.115Z,16.83
2023-04-04T02:41:49.937Z,14.57
2023-04-04T02:44:16.884Z,16.63
2023-04-04T02:46:43.826Z,10.98
2023-04-04T02:49:10.701Z,10.07
2023-04-04T02:51:37.582Z,7.68
2023-04-04T02:54:05.421Z,11.95
2023-04-04T02:56:32.376Z,7.93
2023-04-04T02:58:59.570Z,10.35
2023-04-04T03:01:26.621Z,8.15
2023-04-04T03:03:53.996Z,7.57
2023-04-04T03:06:20.935Z,4.25
2023-04-04T03:08:48.066Z,5.15
2023-04-04T03:11:21.571Z,5.07
2023-04-04T03:13:51.188Z,12.43
2023-04-04T03:16:19.871Z,5.82
2023-04-04T03:18:47.128Z,9.02
2023-04-04T03:21:14.189Z,13.07
2023-04-04T03:23:42.842Z,5.25
2023-04-04T03:26:09.733Z,15.40
2023-04-04T03:28:36.638Z,9.93
2023-04-04T03:31:05.234Z,6.00
2023-04-04T03:33:33.328Z,9.70
2023-04-04T03:36:00.442Z,14.85
2023-04-04T03:38:27.493Z,5.38
2023-04-04T03:41:04.312Z,9.65
2023-04-04T03:43:32.704Z,7.07
2023-04-04T03:46:04.534Z,8.88
2023-04-04T03:48:31.901Z,10.85
2023-04-04T03:50:59.219Z,10.32
2023-04-04T03:53:26.972Z,12.95
2023-04-04T03:55:56.109Z,8.45
2023-04-04T03:58:23.719Z,7.10
2023-04-04T04:00:50.689Z,7.25
2023-04-04T04:03:17.806Z,7.65
2023-04-04T04:05:44.749Z,15.73
2023-04-04T04:08:11.801Z,6.40
2023-04-04T04:10:38.967Z,11.35
2023-04-04T04:13:05.987Z,8.15
2023-04-04T04:15:32.887Z,9.93
2023-04-04T04:17:59.761Z,11.05
2023-04-04T04:20:26.777Z,17.98
2023-04-04T04:22:54.192Z,18.27
2023-04-04T04:25:21.604Z,10.63
2023-04-04T04:27:48.650Z,13.05
2023-04-04T04:30:15.596Z,11.10
2023-04-04T04:32:42.488Z,4.22
2023-04-04T04:35:10.009Z,7.20
2023-04-04T04:37:37.263Z,15.60
2023-04-04T04:40:04.914Z,13.60
2023-04-04T04:42:31.854Z,14.35
2023-04-04T04:44:58.708Z,14.25
2023-04-04T04:47:25.633Z,9.55
2023-04-04T04:49:52.521Z,18.65
2023-04-04T04:52:19.437Z,19.83
2023-04-04T04:54:46.340Z,12.40
2023-04-04T04:57:13.217Z,12.32
2023-04-04T04:59:41.402Z,16.55
2023-04-04T05:02:08.436Z,29.95
2023-04-04T05:04:35.427Z,38.05
2023-04-04T05:07:02.409Z,10.50
2023-04-04T05:09:29.418Z,13.25
2023-04-04T05:11:56.544Z,23.45
2023-04-04T05:14:23.644Z,33.35
2023-04-04T05:16:50.657Z,18.88
2023-04-04T05:19:17.592Z,20.70
2023-04-04T05:21:44.498Z,17.98
2023-04-04T05:24:11.517Z,14.55
2023-04-04T05:26:38.812Z,15.52
2023-04-04T05:29:05.893Z,6.65
2023-04-04T05:31:32.783Z,9.65
2023-04-04T05:34:00.399Z,13.73
2023-04-04T05:36:28.100Z,13.20
2023-04-04T05:38:55.002Z,17.63
2023-04-04T05:41:22.249Z,14.55
2023-04-04T05:43:49.112Z,10.73
2023-04-04T05:46:16.090Z,20.70
2023-04-04T05:48:43.095Z,12.75
2023-04-04T05:51:11.295Z,21.33
2023-04-04T05:53:39.215Z,19.45
2023-04-04T05:56:06.286Z,16.38
2023-04-04T05:58:33.142Z,25.25
2023-04-04T06:01:00.131Z,37.22
2023-04-04T06:03:28.971Z,20.85
2023-04-04T06:05:56.193Z,27.63
2023-04-04T06:08:23.140Z,21.42
2023-04-04T06:10:50.077Z,21.85
2023-04-04T06:13:17.165Z,30.88
2023-04-04T06:15:44.107Z,29.05
2023-04-04T06:18:11.184Z,35.97
2023-04-04T06:20:38.252Z,23.60
2023-04-04T06:23:05.721Z,41.97
2023-04-04T06:25:32.629Z,17.45
2023-04-04T06:27:59.719Z,18.27
2023-04-04T06:30:26.774Z,10.13
2023-04-04T06:32:53.676Z,26.23
2023-04-04T06:35:21.200Z,27.02
2023-04-04T06:37:48.713Z,20.92
2023-04-04T06:40:15.821Z,39.83
2023-04-04T06:42:50.504Z,54.90
2023-04-04T06:45:17.793Z,16.98
2023-04-04T06:47:44.850Z,32.00
2023-04-04T06:50:12.604Z,21.65
2023-04-04T06:52:39.991Z,34.60
2023-04-04T06:55:07.460Z,19.90
2023-04-04T06:57:34.320Z,12.10
2023-04-04T07:00:02.424Z,14.55
2023-04-04T07:02:29.679Z,14.25
2023-04-04T07:04:56.568Z,17.63
2023-04-04T07:07:23.439Z,20.20
2023-04-04T07:09:50.797Z,23.90
2023-04-04T07:12:17.692Z,17.23
2023-04-04T07:14:44.521Z,18.05
2023-04-04T07:17:23.714Z,9.32
2023-04-04T07:19:51.400Z,16.50
2023-04-04T07:22:18.427Z,11.77
2023-04-04T07:24:45.420Z,11.45
2023-04-04T07:27:15.309Z,11.88
2023-04-04T07:29:42.616Z,7.28
2023-04-04T07:32:09.636Z,13.48
2023-04-04T07:34:37.069Z,28.58
2023-04-04T07:37:04.308Z,12.82
2023-04-04T07:39:32.024Z,16.50
2023-04-04T07:41:58.946Z,11.40
2023-04-04T07:44:25.904Z,7.47
2023-04-04T07:47:06.304Z,12.25
2023-04-04T07:49:36.440Z,8.80
2023-04-04T07:52:03.339Z,6.43
2023-04-04T07:54:30.201Z,10.57
2023-04-04T07:56:57.030Z,20.15
2023-04-04T07:59:23.919Z,13.63
2023-04-04T08:01:51.237Z,10.43
2023-04-04T08:04:18.175Z,18.02
2023-04-04T08:06:45.109Z,15.40
2023-04-04T08:09:12.032Z,13.38
2023-04-04T08:11:38.859Z,8.75
2023-04-04T08:14:06.164Z,6.70
2023-04-04T08:16:33.738Z,9.77
2023-04-04T08:19:00.780Z,8.73
2023-04-04T08:21:27.738Z,13.93
2023-04-04T08:23:54.721Z,16.23
2023-04-04T08:26:22.081Z,12.77
2023-04-04T08:28:49.331Z,12.30
2023-04-04T08:31:16.963Z,7.95
2023-04-04T08:33:47.647Z,15.15
2023-04-04T08:36:15.579Z,10.35
2023-04-04T08:38:42.735Z,12.63
2023-04-04T08:41:10.394Z,15.20
2023-04-04T08:43:41.310Z,13.63
2023-04-04T08:46:11.348Z,20.92
2023-04-04T08:48:41.727Z,12.00
2023-04-04T08:51:12.415Z,8.35
2023-04-04T08:53:39.617Z,14.77
2023-04-04T08:56:06.754Z,20.10
2023-04-04T08:58:33.659Z,11.32
2023-04-04T09:01:00.765Z,14.05
2023-04-04T09:03:31.179Z,10.50
2023-04-04T09:05:58.333Z,4.10
2023-04-04T09:08:25.908Z,6.28
2023-04-04T09:10:53.944Z,6.55
2023-04-04T09:13:21.510Z,2.75
2023-04-04T09:15:50.944Z,9.57
2023-04-04T09:18:19.045Z,9.68
2023-04-04T09:20:47.631Z,5.30
2023-04-04T09:23:15.354Z,5.20
2023-04-04T09:26:03.236Z,5.68
2023-04-04T09:28:32.174Z,4.22
2023-04-04T09:31:05.818Z,8.10
2023-04-04T09:33:33.885Z,10.32
2023-04-04T09:36:10.372Z,8.52
2023-04-04T09:38:40.307Z,8.00
2023-04-04T09:41:09.883Z,2.88
2023-04-04T09:43:37.741Z,14.15
2023-04-04T09:46:06.729Z,5.60
2023-04-04T09:48:36.279Z,7.18
2023-04-04T09:51:13.005Z,4.57
2023-04-04T09:53:42.246Z,4.60
2023-04-04T09:56:09.374Z,4.38
2023-04-04T09:58:42.299Z,9.43
2023-04-04T10:01:17.859Z,3.17
2023-04-04T10:03:53.600Z,6.25
2023-04-04T10:08:48.515Z,3.45
2023-04-04T10:11:32.420Z,4.22
2023-04-04T10:14:00.769Z,2.33
2023-04-04T10:16:31.692Z,1.90
2023-04-04T10:19:00.163Z,8.77
2023-04-04T10:21:28.143Z,2.13
2023-04-04T10:23:58.816Z,5.47
2023-04-04T10:26:26.410Z,1.73
2023-04-04T10:28:53.521Z,7.45
2023-04-04T10:31:26.022Z,11.00
2023-04-04T10:34:22.103Z,6.68
2023-04-04T10:36:56.783Z,7.32
2023-04-04T10:39:29.643Z,5.00
2023-04-04T10:41:57.505Z,3.13
2023-04-04T10:44:37.887Z,6.35
2023-04-04T10:47:26.788Z,5.43
2023-04-04T10:49:54.347Z,6.78
2023-04-04T10:52:24.328Z,2.67
2023-04-04T10:54:54.911Z,9.68
2023-04-04T10:57:23.221Z,3.25
2023-04-04T11:00:11.510Z,3.22
2023-04-04T11:02:53.668Z,3.75
2023-04-04T11:05:41.063Z,6.68
2023-04-04T11:08:11.217Z,5.57
2023-04-04T11:10:39.309Z,3.45
2023-04-04T11:13:13.825Z,4.80
2023-04-04T11:16:01.930Z,7.57
2023-04-04T11:18:45.319Z,4.53
2023-04-04T11:21:27.456Z,3.03
2023-04-04T11:23:54.319Z,4.20
2023-04-04T11:26:33.159Z,6.78
2023-04-04T11:29:04.416Z,2.90
2023-04-04T11:31:45.475Z,3.05
2023-04-04T11:34:14.720Z,3.08
2023-04-04T11:36:43.110Z,5.35
2023-04-04T11:39:21.214Z,2.97
2023-04-04T11:42:11.556Z,3.88
2023-04-04T11:45:02.202Z,7.75
2023-04-04T11:47:31.486Z,1.52
2023-04-04T11:50:01.610Z,1.27
2023-04-04T11:52:38.541Z,3.05
2023-04-04T11:55:20.109Z,2.20
2023-04-04T11:57:48.328Z,4.07
2023-04-04T12:00:30.311Z,3.72
2023-04-04T12:02:58.444Z,7.28
2023-04-04T12:05:27.154Z,0.90
2023-04-04T12:07:54.696Z,5.55
2023-04-04T12:10:22.529Z,4.35
2023-04-04T12:12:49.917Z,4.25
2023-04-04T12:15:17.908Z,4.80
2023-04-04T12:17:48.646Z,5.30
2023-04-04T12:20:23.584Z,2.92
2023-04-04T12:22:51.806Z,5.23
2023-04-04T12:25:21.873Z,5.05
2023-04-04T12:27:50.004Z,2.33
2023-04-04T12:30:17.958Z,4.30
2023-04-04T12:32:47.470Z,4.25
2023-04-04T12:35:15.889Z,4.53
2023-04-04T12:38:04.700Z,2.05
2023-04-04T12:40:37.507Z,8.70
2023-04-04T12:43:17.606Z,2.08
2023-04-04T12:45:44.822Z,3.33
2023-04-04T12:48:15.011Z,3.42
2023-04-04T12:50:53.765Z,8.02
2023-04-04T12:53:29.425Z,4.43
2023-04-04T12:56:02.440Z,2.38
2023-04-04T12:58:29.645Z,9.70
2023-04-04T13:01:00.021Z,1.55
2023-04-04T13:03:28.792Z,4.30
2023-04-04T13:05:55.793Z,3.22
2023-04-04T13:08:22.826Z,8.57
2023-04-04T13:11:05.029Z,1.88
2023-04-04T13:13:36.385Z,3.33
2023-04-04T13:16:11.912Z,5.05
2023-04-04T13:18:43.534Z,1.83
2023-04-04T13:21:12.226Z,2.08
2023-04-04T13:23:41.065Z,9.82
2023-04-04T13:26:09.756Z,10.52
2023-04-04T13:28:36.851Z,2.53
2023-04-04T13:31:08.298Z,5.70
2023-04-04T13:33:35.715Z,6.43
2023-04-04T13:36:02.700Z,3.47
2023-04-04T13:38:30.754Z,5.57
2023-04-04T13:40:58.865Z,2.72
2023-04-04T13:43:25.952Z,5.65
2023-04-04T13:45:56.228Z,16.65
2023-04-04T13:48:23.411Z,2.45
2023-04-04T13:50:55.344Z,9.02
2023-04-04T13:53:22.559Z,11.65
2023-04-04T13:58:20.568Z,9.45
2023-04-04T14:00:50.676Z,6.50
2023-04-04T14:03:18.061Z,7.97
2023-04-04T14:05:45.107Z,9.57
2023-04-04T14:08:12.041Z,5.47
2023-04-04T14:10:39.020Z,3.85
2023-04-04T14:13:06.040Z,4.32
2023-04-04T14:15:33.396Z,3.92
2023-04-04T14:18:00.290Z,7.38
2023-04-04T14:20:27.212Z,31.33
2023-04-04T14:22:54.117Z,5.72
2023-04-04T14:25:21.360Z,4.53
2023-04-04T14:27:48.487Z,8.35
2023-04-04T14:30:15.829Z,5.45
2023-04-04T14:32:42.847Z,4.88
2023-04-04T14:35:10.027Z,6.45
2023-04-04T14:37:37.247Z,7.05
2023-04-04T14:40:05.773Z,10.85
2023-04-04T14:42:32.693Z,11.13
2023-04-04T14:45:02.348Z,4.43
2023-04-04T14:47:29.362Z,4.78
2023-04-04T14:49:56.380Z,13.38
2023-04-04T14:52:23.254Z,4.22
2023-04-04T14:54:50.517Z,4.57
2023-04-04T14:57:17.787Z,11.07
2023-04-04T14:59:44.705Z,3.10
2023-04-04T15:02:11.594Z,13.20
2023-04-04T15:04:38.642Z,5.50
2023-04-04T15:07:05.670Z,3.15
2023-04-04T15:09:32.775Z,6.57
2023-04-04T15:11:59.788Z,5.13
2023-04-04T15:14:26.688Z,8.48
2023-04-04T15:16:54.538Z,11.93
2023-04-04T15:19:21.474Z,9.98
2023-04-04T15:21:49.052Z,8.18
2023-04-04T15:24:15.955Z,3.67
2023-04-04T15:26:43.667Z,9.45
2023-04-04T15:29:10.605Z,3.75
2023-04-04T15:31:37.493Z,2.00
2023-04-04T15:34:04.463Z,7.60
2023-04-04T15:36:33.510Z,4.97
2023-04-04T15:39:01.158Z,7.10
2023-04-04T15:41:29.185Z,4.93
2023-04-04T15:43:56.066Z,13.00
2023-04-04T15:46:23.051Z,11.50
2023-04-04T15:48:52.133Z,10.82
2023-04-04T15:51:19.887Z,10.63
2023-04-04T15:53:46.806Z,12.98
2023-04-04T15:56:14.083Z,6.03
2023-04-04T15:58:41.274Z,5.30
2023-04-04T16:01:08.347Z,18.10
2023-04-04T16:03:35.760Z,9.98
2023-04-04T16:06:02.802Z,10.63
2023-04-04T16:08:29.698Z,5.28
2023-04-04T16:10:58.073Z,8.85
2023-04-04T16:13:24.951Z,4.22
2023-04-04T16:15:51.819Z,4.88
2023-04-04T16:18:18.691Z,10.40
2023-04-04T16:20:45.600Z,8.15
2023-04-04T16:23:12.491Z,7.78
2023-04-04T16:25:39.352Z,17.63
2023-04-04T16:28:06.845Z,15.18
2023-04-04T16:30:33.720Z,13.05
2023-04-04T16:33:01.046Z,7.18
2023-04-04T16:35:28.159Z,7.25
2023-04-04T16:37:55.554Z,8.85
2023-04-04T16:40:22.607Z,6.35
2023-04-04T16:42:49.563Z,12.35
2023-04-04T16:45:16.499Z,6.72
2023-04-04T16:47:43.440Z,6.30
2023-04-04T16:50:10.961Z,2.22
2023-04-04T16:52:37.880Z,4.50
2023-04-04T16:55:05.506Z,7.22
2023-04-04T16:57:32.404Z,10.38
2023-04-04T16:59:59.611Z,17.52
2023-04-04T17:02:26.794Z,5.80
2023-04-04T17:04:53.745Z,9.68
2023-04-04T17:07:21.255Z,12.02
2023-04-04T17:09:48.855Z,12.07
2023-04-04T17:12:16.336Z,8.57
2023-04-04T17:14:43.664Z,6.53
2023-04-04T17:17:10.588Z,23.70
2023-04-04T17:19:38.810Z,15.90
2023-04-04T17:22:06.161Z,4.75
2023-04-04T17:24:33.355Z,11.55
2023-04-04T17:27:01.968Z,12.57
2023-04-04T17:29:28.952Z,11.57
2023-04-04T17:31:56.620Z,17.08
2023-04-04T17:34:24.339Z,19.60
2023-04-04T17:36:52.761Z,17.52
2023-04-04T17:39:19.950Z,12.50
2023-04-04T17:41:47.938Z,16.10
2023-04-04T17:44:18.866Z,12.57
2023-04-04T17:46:46.729Z,17.88
2023-04-04T17:49:19.449Z,23.13
2023-04-04T17:51:50.164Z,31.52
2023-04-04T17:54:17.868Z,17.30
2023-04-04T17:56:46.313Z,36.92
2023-04-04T17:59:14.827Z,19.70
2023-04-04T18:01:42.079Z,36.85
2023-04-04T18:04:09.522Z,21.65
2023-04-04T18:06:40.164Z,31.15
2023-04-04T18:09:09.202Z,39.33
2023-04-04T18:11:36.891Z,28.92
2023-04-04T18:14:04.325Z,23.52
2023-04-04T18:16:38.893Z,25.02
2023-04-04T18:19:07.139Z,19.48
2023-04-04T18:21:34.076Z,21.85
2023-04-04T18:24:01.563Z,13.65
2023-04-04T18:26:28.818Z,22.17
2023-04-04T18:28:55.959Z,11.40
2023-04-04T18:31:23.010Z,17.70
2023-04-04T18:33:49.945Z,15.02
2023-04-04T18:36:17.015Z,12.60
2023-04-04T18:38:45.107Z,21.40
2023-04-04T18:41:12.045Z,23.27
2023-04-04T18:43:39.029Z,20.40
2023-04-04T18:46:06.002Z,18.42
2023-04-04T18:48:33.769Z,33.38
2023-04-04T18:51:01.610Z,19.08
2023-04-04T18:53:31.356Z,23.30
2023-04-04T18:55:59.140Z,22.92
2023-04-04T18:58:26.199Z,15.35
2023-04-04T19:00:55.704Z,18.20
2023-04-04T19:03:23.196Z,18.30
2023-04-04T19:05:51.241Z,14.15
2023-04-04T19:08:18.384Z,13.70
2023-04-04T19:10:51.261Z,16.90
2023-04-04T19:13:18.524Z,11.73
2023-04-04T19:15:45.785Z,16.10
2023-04-04T19:18:12.815Z,23.45
2023-04-04T19:20:42.160Z,18.13
2023-04-04T19:23:09.405Z,9.73
2023-04-04T19:25:36.430Z,9.63
2023-04-04T19:28:03.559Z,17.13
2023-04-04T19:30:43.802Z,23.48
2023-04-04T19:33:22.158Z,14.02
2023-04-04T19:35:54.218Z,18.23
2023-04-04T19:38:24.372Z,10.68
2023-04-04T19:41:13.139Z,17.90
2023-04-04T19:43:43.123Z,14.13
2023-04-04T19:46:15.781Z,14.18
2023-04-04T19:48:51.250Z,25.75
2023-04-04T19:51:18.077Z,23.55
2023-04-04T19:53:47.617Z,10.85
2023-04-04T19:56:17.514Z,12.05
2023-04-04T19:58:45.052Z,8.13
2023-04-04T20:01:17.412Z,23.00
2023-04-04T20:03:44.767Z,37.28
2023-04-04T20:06:29.590Z,17.73
2023-04-04T20:09:00.840Z,20.67
2023-04-04T20:11:33.285Z,19.10
2023-04-04T20:14:02.334Z,18.33
2023-04-04T20:16:30.669Z,9.45
2023-04-04T20:19:02.267Z,7.45
2023-04-04T20:21:31.659Z,7.40
2023-04-04T20:24:08.562Z,18.05
2023-04-04T20:26:38.442Z,18.48
2023-04-04T20:29:16.144Z,6.82
2023-04-04T20:31:57.883Z,14.30
2023-04-04T20:34:39.360Z,14.45
2023-04-04T20:37:16.297Z,18.52
2023-04-04T20:39:54.200Z,14.93
2023-04-04T20:42:33.896Z,8.25
2023-04-04T20:45:07.774Z,12.55
2023-04-04T20:47:45.157Z,13.13
2023-04-04T20:50:18.764Z,7.82
2023-04-04T20:52:51.253Z,13.48
2023-04-04T20:55:19.342Z,20.88
2023-04-04T20:57:47.239Z,9.10
2023-04-04T21:00:29.385Z,5.35
2023-04-04T21:02:58.144Z,6.95
2023-04-04T21:05:32.639Z,24.00
2023-04-04T21:08:01.173Z,13.57
2023-04-04T21:10:28.640Z,9.20
2023-04-04T21:12:58.611Z,14.07
2023-04-04T21:15:35.017Z,9.48
2023-04-04T21:18:06.937Z,4.95
2023-04-04T21:20:49.694Z,13.93
2023-04-04T21:23:32.369Z,7.93
2023-04-04T21:26:04.776Z,5.57
2023-04-04T21:28:34.037Z,13.50
2023-04-04T21:31:02.603Z,6.45
2023-04-04T21:33:29.511Z,19.15
2023-04-04T21:35:56.504Z,5.68
2023-04-04T21:38:32.173Z,13.18
2023-04-04T21:43:28.068Z,14.63
2023-04-04T21:45:56.424Z,5.03
2023-04-04T21:48:24.649Z,14.85
2023-04-04T21:50:51.688Z,9.93
2023-04-04T21:53:18.633Z,16.35
2023-04-04T21:55:45.561Z,5.15
2023-04-04T21:58:12.991Z,8.32
2023-04-04T22:00:40.288Z,5.05
2023-04-04T22:03:07.621Z,10.20
2023-04-04T22:05:39.115Z,3.60
2023-04-04T22:08:06.704Z,9.98
2023-04-04T22:10:33.666Z,13.13
2023-04-04T22:13:01.945Z,4.13
2023-04-04T22:15:32.196Z,5.32
2023-04-04T22:18:04.032Z,8.45
2023-04-04T22:20:33.905Z,8.15
2023-04-04T22:23:05.210Z,10.48
2023-04-04T22:25:33.934Z,5.38
2023-04-04T22:28:03.908Z,4.45
2023-04-04T22:30:34.351Z,4.03
2023-04-04T22:33:03.621Z,5.38
2023-04-04T22:35:33.395Z,7.13
2023-04-04T22:38:03.900Z,5.75
2023-04-04T22:40:32.914Z,7.78
2023-04-04T22:43:01.526Z,5.95
2023-04-04T22:45:29.707Z,9.23
2023-04-04T22:48:02.425Z,7.43
2023-04-04T22:50:29.714Z,7.43
2023-04-04T22:52:58.764Z,13.43
2023-04-04T22:55:26.824Z,4.30
2023-04-04T22:57:53.821Z,8.15
2023-04-04T23:00:21.003Z,8.75
2023-04-04T23:02:49.638Z,7.03
2023-04-04T23:05:17.868Z,7.07
2023-04-04T23:07:46.506Z,6.13
2023-04-04T23:10:16.004Z,6.43
2023-04-04T23:12:42.924Z,5.22
2023-04-04T23:15:10.262Z,3.30
2023-04-04T23:17:38.931Z,6.05
2023-04-04T23:20:10.207Z,6.72
2023-04-04T23:22:38.162Z,10.05
2023-04-04T23:25:06.651Z,6.13
2023-04-04T23:27:34.309Z,1.55
2023-04-04T23:30:04.794Z,6.20
2023-04-04T23:32:32.245Z,4.88
2023-04-04T23:34:59.265Z,1.73
2023-04-04T23:37:26.288Z,7.57
2023-04-04T23:39:53.214Z,6.93
2023-04-04T23:42:20.274Z,3.75
2023-04-04T23:44:47.150Z,4.05
2023-04-04T23:47:14.107Z,6.32
2023-04-04T23:49:41.058Z,4.97
2023-04-04T23:52:07.961Z,4.43
2023-04-04T23:54:34.918Z,4.60
2023-04-04T23:57:01.838Z,4.15
2023-04-04T23:59:28.828Z,3.45
